Time;durP1;ratioP1;P1;durP2;ratioP2;P2;SDS_P1;SDS_P2;PMS_P1;PMS_P2;Temp;Humidity;BMP_temperature;BMP_pressure;BME280_temperature;BME280_humidity;BME280_pressure;Samples;Min_cycle;Max_cycle;Signal;HPM_P1;HPM_P2
2021/03/03 00:01:59;;;;;;;19.10;11.90;;;10.80;51.30;;;;;;5072004;28;20207;-41
2021/03/03 00:04:28;;;;;;;17.00;12.50;;;10.90;51.00;;;;;;5071810;28;20184;-41
2021/03/03 00:06:53;;;;;;;15.50;11.37;;;10.90;50.90;;;;;;5070942;28;20496;-41
2021/03/03 00:09:19;;;;;;;20.40;11.87;;;10.90;50.90;;;;;;5061882;28;20430;-41
2021/03/03 00:11:45;;;;;;;16.93;11.70;;;10.80;51.10;;;;;;5070139;28;20275;-41
2021/03/03 00:14:11;;;;;;;15.67;11.60;;;10.80;51.20;;;;;;5071972;28;20647;-41
2021/03/03 00:16:37;;;;;;;16.40;11.60;;;10.90;50.80;;;;;;5072012;28;20945;-41
2021/03/03 00:19:03;;;;;;;20.43;11.63;;;11.00;50.50;;;;;;5072609;28;20204;-41
2021/03/03 00:21:29;;;;;;;16.83;12.20;;;11.00;50.50;;;;;;5073386;28;20196;-41
2021/03/03 00:23:54;;;;;;;16.90;12.30;;;10.70;50.90;;;;;;5070938;28;20429;-41
2021/03/03 00:26:20;;;;;;;17.87;11.83;;;10.30;51.80;;;;;;5071028;28;20252;-41
2021/03/03 00:28:46;;;;;;;16.97;11.83;;;10.30;52.30;;;;;;5072127;28;20560;-41
2021/03/03 00:31:12;;;;;;;15.37;12.10;;;10.30;52.30;;;;;;5071612;28;20235;-41
2021/03/03 00:33:38;;;;;;;16.20;12.00;;;10.30;52.40;;;;;;5070531;28;20434;-41
2021/03/03 00:36:04;;;;;;;14.67;10.93;;;10.20;52.40;;;;;;5071484;28;20433;-41
2021/03/03 00:38:30;;;;;;;17.20;12.30;;;10.10;52.80;;;;;;5070482;28;20286;-41
2021/03/03 00:40:55;;;;;;;17.80;11.80;;;10.10;53.00;;;;;;5071280;28;20663;-41
2021/03/03 00:43:21;;;;;;;15.47;12.23;;;10.10;53.10;;;;;;5071324;28;20434;-41
2021/03/03 00:45:47;;;;;;;22.30;12.67;;;10.00;53.40;;;;;;5070524;28;20671;-41
2021/03/03 00:48:12;;;;;;;18.90;12.40;;;10.00;53.30;;;;;;5071562;28;20563;-41
2021/03/03 00:50:38;;;;;;;21.60;12.60;;;9.80;54.50;;;;;;5070990;28;20250;-41
2021/03/03 00:53:10;;;;;;;17.20;12.30;;;10.00;53.60;;;;;;5071527;28;20192;-41
2021/03/03 00:55:35;;;;;;;18.23;11.80;;;9.90;54.60;;;;;;5073036;28;20228;-41
2021/03/03 00:58:01;;;;;;;19.43;12.73;;;9.90;54.60;;;;;;5071887;28;20495;-41
2021/03/03 01:00:27;;;;;;;19.90;12.60;;;9.90;54.70;;;;;;5069683;28;20525;-41
2021/03/03 01:02:53;;;;;;;18.03;12.57;;;9.80;54.90;;;;;;5070772;28;20207;-41
2021/03/03 01:05:19;;;;;;;19.03;13.23;;;9.10;56.40;;;;;;5070028;28;20493;-41
2021/03/03 01:07:45;;;;;;;23.80;12.70;;;8.90;56.90;;;;;;5067490;28;20472;-41
2021/03/03 01:10:11;;;;;;;18.10;11.90;;;8.60;57.90;;;;;;5063913;28;20427;-41
2021/03/03 01:12:37;;;;;;;15.93;11.40;;;8.50;58.20;;;;;;5055044;28;20199;-41
2021/03/03 01:15:04;;;;;;;18.30;12.83;;;8.50;58.60;;;;;;5070232;28;20922;-41
2021/03/03 01:17:30;;;;;;;17.77;11.93;;;8.60;58.30;;;;;;5070745;28;20227;-41
2021/03/03 01:19:56;;;;;;;18.10;12.33;;;8.70;58.10;;;;;;5070677;28;20527;-41
2021/03/03 01:22:21;;;;;;;21.70;13.07;;;9.00;57.50;;;;;;5070905;28;20195;-41
2021/03/03 01:24:47;;;;;;;19.87;12.23;;;9.30;57.00;;;;;;5070114;28;20220;-41
2021/03/03 01:27:12;;;;;;;18.77;12.97;;;9.50;56.30;;;;;;5069989;28;20269;-41
2021/03/03 01:29:38;;;;;;;19.83;13.07;;;9.50;56.20;;;;;;5066919;28;20704;-41
2021/03/03 01:32:04;;;;;;;19.97;12.83;;;9.60;56.10;;;;;;5070517;28;20196;-41
2021/03/03 01:34:29;;;;;;;22.03;13.60;;;9.70;55.90;;;;;;5068205;28;20211;-40
2021/03/03 01:36:55;;;;;;;18.50;12.80;;;9.60;55.80;;;;;;5070663;28;20192;-41
2021/03/03 01:39:21;;;;;;;21.83;13.73;;;9.30;56.40;;;;;;5069593;28;20242;-41
2021/03/03 01:41:46;;;;;;;17.20;13.27;;;9.30;56.60;;;;;;5071426;28;20658;-41
2021/03/03 01:44:12;;;;;;;18.87;12.60;;;9.50;56.20;;;;;;5069025;28;20198;-41
2021/03/03 01:46:37;;;;;;;22.83;13.50;;;9.30;56.30;;;;;;5069461;28;20235;-41
2021/03/03 01:49:03;;;;;;;17.53;12.60;;;9.20;56.50;;;;;;5069773;28;20192;-41
2021/03/03 01:51:29;;;;;;;21.77;13.90;;;9.20;57.10;;;;;;5069878;28;20278;-41
2021/03/03 01:53:55;;;;;;;17.80;13.53;;;9.40;56.70;;;;;;5069992;28;20194;-41
2021/03/03 01:56:20;;;;;;;18.77;13.73;;;9.40;56.80;;;;;;5069484;28;20192;-41
2021/03/03 01:58:46;;;;;;;19.70;13.60;;;9.40;56.40;;;;;;5070491;28;20870;-41
2021/03/03 02:01:14;;;;;;;21.07;13.80;;;9.30;56.50;;;;;;5069294;28;20194;-41
2021/03/03 02:03:39;;;;;;;21.83;14.20;;;9.40;56.60;;;;;;5068078;28;20200;-41
2021/03/03 02:06:21;;;;;;;17.83;13.17;;;9.60;56.30;;;;;;5068932;28;20500;-41
2021/03/03 02:08:53;;;;;;;22.57;14.00;;;9.70;56.00;;;;;;5070203;28;20227;-41
2021/03/03 02:11:25;;;;;;;22.33;13.00;;;9.90;55.40;;;;;;5069415;28;20465;-41
2021/03/03 02:13:57;;;;;;;21.80;13.77;;;9.80;54.90;;;;;;5069679;28;20553;-41
2021/03/03 02:16:24;;;;;;;20.00;14.57;;;9.60;55.20;;;;;;5069097;28;20434;-41
2021/03/03 02:18:50;;;;;;;18.40;13.37;;;9.50;55.80;;;;;;5069464;28;20430;-41
2021/03/03 02:21:39;;;;;;;18.27;13.00;;;9.50;55.70;;;;;;5069048;28;20434;-41
2021/03/03 02:24:10;;;;;;;16.93;13.40;;;9.50;55.80;;;;;;5068055;28;20442;-41
2021/03/03 02:26:39;;;;;;;17.73;12.60;;;9.20;56.70;;;;;;5069802;28;20535;-41
2021/03/03 02:29:13;;;;;;;20.80;13.73;;;9.20;56.50;;;;;;5069522;28;20822;-41
2021/03/03 02:31:42;;;;;;;18.73;13.60;;;9.00;56.70;;;;;;5067961;28;20442;-43
2021/03/03 02:34:09;;;;;;;18.93;13.60;;;9.00;56.80;;;;;;5069402;28;20441;-41
2021/03/03 02:36:37;;;;;;;18.83;13.47;;;8.90;57.30;;;;;;5070280;28;20462;-41
2021/03/03 02:39:05;;;;;;;20.50;13.37;;;8.90;57.30;;;;;;5069777;28;21188;-41
2021/03/03 02:41:32;;;;;;;19.00;14.73;;;9.10;56.90;;;;;;5069882;28;20797;-41
2021/03/03 02:44:00;;;;;;;17.17;13.17;;;9.00;57.30;;;;;;5068842;28;20434;-41
2021/03/03 02:46:26;;;;;;;23.20;13.90;;;8.90;57.30;;;;;;5069651;28;20529;-41
2021/03/03 02:48:53;;;;;;;22.20;14.80;;;9.00;57.30;;;;;;5069378;28;20795;-41
2021/03/03 02:51:19;;;;;;;19.60;14.03;;;9.00;56.90;;;;;;5069508;28;20978;-41
2021/03/03 02:53:44;;;;;;;21.53;12.80;;;8.80;57.10;;;;;;5068981;28;20422;-41
2021/03/03 02:56:10;;;;;;;20.47;13.23;;;8.70;57.10;;;;;;5069153;28;20202;-41
2021/03/03 02:58:37;;;;;;;17.97;13.90;;;8.50;57.70;;;;;;5067974;28;21196;-41
2021/03/03 03:01:04;;;;;;;26.60;15.60;;;8.40;58.10;;;;;;5069547;28;20445;-41
2021/03/03 03:03:35;;;;;;;21.10;14.57;;;8.50;58.20;;;;;;5069076;28;20477;-41
2021/03/03 03:06:01;;;;;;;20.80;15.40;;;8.70;57.90;;;;;;5068130;28;20517;-41
2021/03/03 03:08:29;;;;;;;21.20;14.30;;;8.40;58.00;;;;;;5069646;28;20868;-41
2021/03/03 03:10:59;;;;;;;19.83;12.97;;;8.30;58.50;;;;;;5069117;28;20223;-41
2021/03/03 03:13:27;;;;;;;20.60;13.37;;;8.30;58.20;;;;;;5068752;28;20434;-41
2021/03/03 03:15:54;;;;;;;17.33;13.27;;;8.40;58.30;;;;;;5068865;28;20532;-41
2021/03/03 03:18:24;;;;;;;22.60;13.30;;;8.50;57.80;;;;;;5066896;28;20431;-41
2021/03/03 03:20:52;;;;;;;22.87;13.00;;;8.70;57.40;;;;;;5068888;28;20791;-41
2021/03/03 03:23:20;;;;;;;20.00;14.03;;;8.70;57.10;;;;;;5068665;28;20441;-41
2021/03/03 03:25:46;;;;;;;21.60;14.10;;;8.70;57.00;;;;;;5068307;28;20488;-41
2021/03/03 03:28:12;;;;;;;22.97;14.47;;;8.70;57.60;;;;;;5071333;28;20803;-41
2021/03/03 03:30:40;;;;;;;22.13;14.37;;;8.60;57.40;;;;;;5072244;28;20501;-41
2021/03/03 03:33:06;;;;;;;17.50;13.40;;;8.30;58.10;;;;;;5073545;28;20438;-41
2021/03/03 03:35:32;;;;;;;24.97;14.93;;;8.20;58.90;;;;;;5071057;28;20470;-41
2021/03/03 03:37:59;;;;;;;22.87;15.93;;;8.20;58.90;;;;;;5073186;28;20511;-41
2021/03/03 03:40:25;;;;;;;20.17;13.77;;;8.00;59.40;;;;;;5072016;28;20195;-41
2021/03/03 03:42:54;;;;;;;20.23;14.10;;;8.10;59.40;;;;;;5073052;28;20556;-41
2021/03/03 03:45:22;;;;;;;17.47;13.53;;;8.10;59.50;;;;;;5071961;28;20874;-41
2021/03/03 03:47:48;;;;;;;22.27;14.73;;;7.90;59.80;;;;;;5072374;28;21106;-41
2021/03/03 03:50:15;;;;;;;22.40;14.77;;;7.70;60.40;;;;;;5072396;28;20440;-41
2021/03/03 03:52:40;;;;;;;20.17;13.30;;;7.70;61.00;;;;;;5072338;28;20434;-41
2021/03/03 03:55:07;;;;;;;19.70;14.47;;;8.10;60.40;;;;;;5069862;28;20513;-41
2021/03/03 03:57:51;;;;;;;19.00;14.10;;;8.30;59.50;;;;;;5072023;28;20196;-41
2021/03/03 04:00:21;;;;;;;22.10;15.07;;;8.50;58.90;;;;;;5071625;28;20430;-41
2021/03/03 04:02:47;;;;;;;19.70;14.87;;;8.60;58.30;;;;;;5074576;28;20438;-41
2021/03/03 04:05:14;;;;;;;22.33;13.70;;;8.80;58.20;;;;;;5071757;28;20563;-41
2021/03/03 04:07:40;;;;;;;22.00;15.27;;;8.60;57.80;;;;;;5071728;28;20427;-41
2021/03/03 04:10:09;;;;;;;17.90;14.23;;;8.60;58.30;;;;;;5071816;28;20426;-41
2021/03/03 04:12:34;;;;;;;25.27;14.97;;;8.50;58.40;;;;;;5072612;28;20888;-41
2021/03/03 04:15:00;;;;;;;20.87;14.10;;;8.50;58.50;;;;;;5071934;28;20465;-41
2021/03/03 04:17:26;;;;;;;20.07;14.57;;;8.50;58.70;;;;;;5072270;28;20191;-41
2021/03/03 04:19:51;;;;;;;21.30;14.90;;;8.70;58.40;;;;;;5082349;28;20188;-42
2021/03/03 04:22:17;;;;;;;22.47;14.30;;;8.70;58.30;;;;;;5072294;28;20188;-41
2021/03/03 04:24:43;;;;;;;24.20;17.40;;;8.70;58.00;;;;;;5070075;28;20199;-41
2021/03/03 04:27:08;;;;;;;24.33;16.10;;;8.80;57.80;;;;;;5071851;28;20228;-41
2021/03/03 04:29:34;;;;;;;20.07;14.30;;;8.90;57.50;;;;;;5071704;28;20877;-41
2021/03/03 04:31:59;;;;;;;19.80;14.53;;;8.90;57.10;;;;;;5071370;28;20206;-41
2021/03/03 04:34:25;;;;;;;19.80;14.67;;;9.00;57.10;;;;;;5070953;28;20200;-41
2021/03/03 04:36:50;;;;;;;21.90;14.90;;;8.80;57.10;;;;;;5058385;28;20192;-41
2021/03/03 04:39:16;;;;;;;23.60;16.10;;;8.80;57.30;;;;;;5069990;28;20222;-41
2021/03/03 04:41:42;;;;;;;22.23;15.63;;;8.70;57.50;;;;;;5071487;28;20242;-41
2021/03/03 04:44:07;;;;;;;22.73;16.27;;;8.60;57.60;;;;;;5071068;28;20305;-41
2021/03/03 04:46:33;;;;;;;21.17;15.60;;;8.60;57.80;;;;;;5071340;28;20262;-41
2021/03/03 04:48:58;;;;;;;20.53;15.23;;;8.50;57.90;;;;;;5072387;28;20255;-41
2021/03/03 04:51:24;;;;;;;22.77;14.03;;;8.40;58.00;;;;;;5068832;28;20237;-41
2021/03/03 04:53:49;;;;;;;24.10;15.77;;;8.50;58.10;;;;;;5071186;28;20561;-41
2021/03/03 04:56:15;;;;;;;20.67;14.80;;;8.60;57.80;;;;;;5071518;28;20560;-41
2021/03/03 04:58:41;;;;;;;19.63;15.53;;;8.70;57.60;;;;;;5071337;28;20195;-41
2021/03/03 05:01:06;;;;;;;22.40;15.80;;;8.70;57.30;;;;;;5070735;28;20651;-41
2021/03/03 05:03:32;;;;;;;22.90;16.70;;;8.70;57.60;;;;;;5070726;28;20210;-41
2021/03/03 05:05:58;;;;;;;23.20;16.90;;;8.50;58.20;;;;;;5070297;28;20242;-41
2021/03/03 05:08:23;;;;;;;21.63;15.33;;;8.70;58.10;;;;;;5065271;28;20442;-41
2021/03/03 05:10:49;;;;;;;23.43;16.07;;;8.30;58.20;;;;;;5070993;28;20204;-41
2021/03/03 05:13:16;;;;;;;21.07;15.20;;;8.10;59.10;;;;;;5070705;28;20200;-41
2021/03/03 05:15:42;;;;;;;24.93;15.90;;;8.30;59.30;;;;;;5071058;28;20200;-41
2021/03/03 05:18:09;;;;;;;22.90;16.27;;;8.40;59.00;;;;;;5071300;28;20442;-41
2021/03/03 05:20:35;;;;;;;23.20;15.93;;;8.40;58.80;;;;;;5068433;28;20974;-41
2021/03/03 05:23:01;;;;;;;20.60;15.20;;;8.30;58.60;;;;;;5070979;28;20439;-41
2021/03/03 05:25:26;;;;;;;29.30;17.27;;;8.10;58.50;;;;;;5069735;28;20304;-41
2021/03/03 05:27:52;;;;;;;21.70;14.40;;;7.80;59.20;;;;;;5071271;28;20294;-41
2021/03/03 05:30:18;;;;;;;23.53;16.30;;;7.60;60.10;;;;;;5070232;28;20239;-41
2021/03/03 05:32:43;;;;;;;29.40;16.27;;;7.60;60.10;;;;;;5070154;28;20203;-41
2021/03/03 05:35:10;;;;;;;26.23;17.53;;;7.70;60.20;;;;;;5069943;28;20438;-41
2021/03/03 05:37:35;;;;;;;24.93;16.00;;;8.00;59.90;;;;;;5070431;28;20707;-41
2021/03/03 05:40:01;;;;;;;25.60;16.63;;;8.10;59.10;;;;;;5070218;28;20426;-41
2021/03/03 05:42:28;;;;;;;23.03;16.90;;;8.20;59.10;;;;;;5070667;28;20188;-41
2021/03/03 05:44:54;;;;;;;24.77;17.03;;;8.40;58.90;;;;;;5069110;28;20196;-41
2021/03/03 05:47:22;;;;;;;22.30;15.53;;;8.50;58.40;;;;;;5069572;28;20544;-41
2021/03/03 05:49:50;;;;;;;21.83;14.90;;;8.60;57.90;;;;;;5069971;28;20758;-41
2021/03/03 05:52:18;;;;;;;23.03;15.50;;;8.40;57.80;;;;;;5070863;28;20438;-41
2021/03/03 05:54:45;;;;;;;23.50;15.00;;;8.30;58.20;;;;;;5068756;28;20943;-41
2021/03/03 05:57:12;;;;;;;23.77;16.23;;;8.30;58.20;;;;;;5070747;28;20771;-41
2021/03/03 05:59:38;;;;;;;28.20;16.67;;;8.20;58.40;;;;;;5069049;28;20827;-41
2021/03/03 06:02:05;;;;;;;24.60;16.00;;;8.20;58.00;;;;;;5073740;28;20740;-41
2021/03/03 06:04:31;;;;;;;24.80;16.03;;;8.10;58.50;;;;;;5069567;28;20426;-41
2021/03/03 06:06:57;;;;;;;25.03;16.07;;;7.90;58.80;;;;;;5070273;28;20489;-41
2021/03/03 06:09:23;;;;;;;28.20;16.77;;;8.10;58.80;;;;;;5069665;28;20429;-41
2021/03/03 06:11:49;;;;;;;18.33;13.03;;;8.30;58.30;;;;;;5069341;28;20434;-41
2021/03/03 06:14:15;;;;;;;21.43;15.43;;;8.40;59.10;;;;;;5069542;28;20212;-41
2021/03/03 06:16:41;;;;;;;17.60;14.07;;;8.40;59.60;;;;;;5068194;28;20478;-41
2021/03/03 06:19:07;;;;;;;25.27;15.20;;;8.80;59.00;;;;;;5074398;28;20588;-41
2021/03/03 06:21:33;;;;;;;20.40;13.93;;;8.50;57.60;;;;;;5051061;28;20864;-41
2021/03/03 06:24:07;;;;;;;21.27;13.43;;;8.70;58.40;;;;;;5068538;28;20470;-42
2021/03/03 06:26:34;;;;;;;17.10;12.43;;;9.20;59.70;;;;;;5068557;28;20544;-41
2021/03/03 06:29:00;;;;;;;22.80;14.33;;;10.00;56.10;;;;;;5069748;28;20434;-41
2021/03/03 06:31:37;;;;;;;18.90;14.60;;;10.60;53.00;;;;;;5068210;28;20925;-41
2021/03/03 06:34:12;;;;;;;18.13;14.10;;;11.10;51.30;;;;;;5062123;28;20612;-41
2021/03/03 06:36:39;;;;;;;19.43;13.87;;;11.60;50.00;;;;;;5069740;28;20494;-41
2021/03/03 06:39:22;;;;;;;16.30;14.07;;;11.90;49.00;;;;;;5067890;28;20423;-41
2021/03/03 06:41:52;;;;;;;21.30;14.93;;;12.20;47.90;;;;;;5068766;28;20801;-41
2021/03/03 06:44:17;;;;;;;20.20;14.40;;;12.40;47.30;;;;;;5066566;28;20441;-41
2021/03/03 06:47:00;;;;;;;23.30;16.13;;;12.50;46.90;;;;;;5069692;28;20961;-41
2021/03/03 06:49:26;;;;;;;20.60;14.17;;;12.60;46.80;;;;;;5065900;28;20191;-41
2021/03/03 06:51:51;;;;;;;19.17;14.50;;;12.80;46.40;;;;;;5069736;28;20492;-41
2021/03/03 06:54:19;;;;;;;21.67;15.63;;;13.00;45.90;;;;;;5068271;28;20202;-41
2021/03/03 06:56:47;;;;;;;19.47;14.40;;;13.10;45.60;;;;;;5069293;28;20245;-41
2021/03/03 06:59:32;;;;;;;20.30;11.57;;;13.30;45.40;;;;;;5049834;28;20474;-41
2021/03/03 07:02:16;;;;;;;19.20;14.40;;;13.40;47.20;;;;;;5070734;28;20442;-41
2021/03/03 07:04:43;;;;;;;20.40;13.63;;;13.60;47.10;;;;;;5072180;28;20433;-41
2021/03/03 07:07:14;;;;;;;22.40;14.57;;;13.80;45.00;;;;;;5073503;28;20529;-42
2021/03/03 07:09:42;;;;;;;25.00;15.83;;;13.90;44.20;;;;;;5072832;28;20453;-41
2021/03/03 07:12:18;;;;;;;21.00;15.57;;;14.00;43.80;;;;;;5067704;28;20453;-41
2021/03/03 07:14:54;;;;;;;24.03;18.33;;;14.00;43.60;;;;;;5072509;28;20426;-41
2021/03/03 07:17:24;;;;;;;27.80;19.10;;;14.00;43.60;;;;;;5072938;28;20987;-41
2021/03/03 07:19:58;;;;;;;26.20;19.57;;;14.00;43.40;;;;;;5073681;28;20441;-41
2021/03/03 07:22:38;;;;;;;21.77;17.07;;;14.00;43.40;;;;;;5069621;28;20479;-41
2021/03/03 07:25:12;;;;;;;23.53;17.23;;;14.00;43.90;;;;;;5070026;28;20561;-41
2021/03/03 07:27:40;;;;;;;18.47;15.80;;;13.70;43.70;;;;;;5068728;28;20445;-40
2021/03/03 07:30:13;;;;;;;24.40;15.90;;;13.50;44.20;;;;;;5071151;28;20466;-41
2021/03/03 07:32:40;;;;;;;21.80;15.60;;;13.50;44.50;;;;;;5073129;28;20941;-41
2021/03/03 07:35:08;;;;;;;23.47;15.47;;;13.70;44.20;;;;;;5052499;28;20450;-41
2021/03/03 07:37:36;;;;;;;19.20;14.70;;;13.70;44.10;;;;;;5066987;28;20438;-41
2021/03/03 07:40:07;;;;;;;21.50;15.37;;;13.80;43.90;;;;;;5068372;28;20927;-44
2021/03/03 07:42:33;;;;;;;21.37;14.63;;;13.90;43.80;;;;;;5064592;28;21050;-44
2021/03/03 07:45:01;;;;;;;19.60;15.60;;;14.00;43.70;;;;;;5068358;28;20925;-45
2021/03/03 07:47:33;;;;;;;21.87;16.73;;;13.80;43.60;;;;;;5067892;28;20442;-44
2021/03/03 07:50:04;;;;;;;19.47;15.83;;;13.70;44.30;;;;;;5071536;28;20434;-44
2021/03/03 07:52:33;;;;;;;21.27;15.93;;;13.50;44.60;;;;;;5070830;28;20851;-44
2021/03/03 07:54:59;;;;;;;19.60;15.60;;;13.80;44.60;;;;;;5071758;28;20440;-45
2021/03/03 07:57:29;;;;;;;18.83;15.20;;;13.80;44.30;;;;;;5071833;28;20462;-43
2021/03/03 07:59:56;;;;;;;23.13;16.40;;;13.90;44.30;;;;;;5071637;28;20438;-45
2021/03/03 08:02:22;;;;;;;20.13;15.53;;;14.00;44.20;;;;;;5064155;28;20442;-43
2021/03/03 08:04:48;;;;;;;19.10;15.93;;;13.60;44.70;;;;;;5062805;28;20641;-43
2021/03/03 08:07:22;;;;;;;24.93;16.93;;;12.90;45.40;;;;;;5068627;28;21051;-43
2021/03/03 08:10:20;;;;;;;23.13;15.10;;;13.00;46.90;;;;;;5061519;28;20649;-43
2021/03/03 08:13:02;;;;;;;20.80;15.40;;;13.30;45.70;;;;;;5069740;28;20461;-43
2021/03/03 08:15:36;;;;;;;22.37;15.07;;;13.50;45.30;;;;;;5070740;28;20449;-43
2021/03/03 08:18:14;;;;;;;19.13;16.20;;;13.80;44.90;;;;;;5066930;28;20437;-44
2021/03/03 08:20:50;;;;;;;19.33;15.43;;;13.90;44.50;;;;;;5062855;28;20856;-45
2021/03/03 08:23:38;;;;;;;20.17;17.23;;;14.10;44.40;;;;;;5060212;28;20886;-45
2021/03/03 08:26:11;;;;;;;21.60;16.90;;;14.20;44.30;;;;;;5064907;28;20478;-44
2021/03/03 08:28:50;;;;;;;20.10;16.43;;;14.10;44.50;;;;;;5066583;28;20980;-44
2021/03/03 08:31:16;;;;;;;18.50;16.50;;;14.10;44.20;;;;;;5066170;28;20471;-45
2021/03/03 08:33:48;;;;;;;24.90;16.80;;;13.90;44.50;;;;;;5063724;28;20482;-43
2021/03/03 08:36:26;;;;;;;24.70;17.40;;;13.50;46.10;;;;;;5066155;28;20438;-44
2021/03/03 08:38:55;;;;;;;22.20;16.40;;;13.20;46.50;;;;;;5058607;28;20952;-44
2021/03/03 08:41:27;;;;;;;23.40;16.43;;;12.50;47.60;;;;;;5061933;28;20439;-44
2021/03/03 08:44:05;;;;;;;20.50;15.27;;;11.80;49.10;;;;;;5058962;28;20454;-44
2021/03/03 08:46:30;;;;;;;23.33;16.87;;;12.00;50.50;;;;;;5066386;28;20477;-44
2021/03/03 08:48:56;;;;;;;27.43;18.90;;;11.70;49.40;;;;;;5060113;28;20489;-43
2021/03/03 08:51:28;;;;;;;23.43;17.50;;;11.20;50.80;;;;;;5065118;28;20564;-44
2021/03/03 08:54:15;;;;;;;25.40;16.90;;;11.40;51.30;;;;;;5063537;28;20188;-44
2021/03/03 08:56:52;;;;;;;27.73;16.67;;;11.20;51.50;;;;;;5056180;28;20857;-43
2021/03/03 08:59:32;;;;;;;26.63;15.13;;;10.90;52.60;;;;;;5064572;28;20806;-43
2021/03/03 09:02:02;;;;;;;21.60;16.93;;;11.30;52.60;;;;;;5065453;28;20512;-43
2021/03/03 09:04:32;;;;;;;23.93;17.00;;;11.60;51.50;;;;;;5065010;28;20442;-43
2021/03/03 09:07:01;;;;;;;22.00;15.57;;;11.80;51.40;;;;;;5064686;28;20822;-43
2021/03/03 09:09:28;;;;;;;23.30;16.33;;;11.80;50.80;;;;;;5061126;28;20431;-43
2021/03/03 09:12:06;;;;;;;20.67;16.40;;;11.80;51.00;;;;;;5066521;28;20517;-44
2021/03/03 09:14:34;;;;;;;22.57;16.50;;;12.20;50.80;;;;;;5062808;28;20484;-43
2021/03/03 09:17:02;;;;;;;21.17;16.47;;;12.10;50.00;;;;;;5063908;28;20441;-44
2021/03/03 09:19:29;;;;;;;21.67;17.07;;;12.00;51.00;;;;;;5069766;28;20438;-43
2021/03/03 09:21:56;;;;;;;21.60;14.80;;;11.90;50.50;;;;;;5070761;28;20476;-44
2021/03/03 09:24:22;;;;;;;22.93;16.30;;;12.00;50.80;;;;;;5068993;28;20441;-44
2021/03/03 09:26:48;;;;;;;23.50;16.30;;;11.80;51.00;;;;;;5052681;28;20482;-44
2021/03/03 09:29:35;;;;;;;24.97;16.80;;;12.20;51.00;;;;;;5068882;28;20437;-44
2021/03/03 09:32:08;;;;;;;24.80;16.80;;;12.30;50.10;;;;;;5064621;28;20563;-43
2021/03/03 09:34:35;;;;;;;19.73;16.87;;;12.20;50.10;;;;;;5066754;28;20430;-44
2021/03/03 09:37:03;;;;;;;22.37;16.67;;;12.00;50.40;;;;;;5067276;28;20509;-45
2021/03/03 09:39:29;;;;;;;23.07;16.90;;;12.00;50.30;;;;;;5069297;28;20438;-44
2021/03/03 09:41:59;;;;;;;19.30;14.83;;;12.00;50.30;;;;;;5070725;28;20430;-44
2021/03/03 09:44:25;;;;;;;21.60;17.20;;;12.00;50.70;;;;;;5068363;28;20469;-45
2021/03/03 09:47:01;;;;;;;23.67;17.17;;;12.30;50.30;;;;;;5069513;28;20517;-44
2021/03/03 09:49:31;;;;;;;23.70;17.53;;;12.60;49.60;;;;;;5069608;28;20519;-45
2021/03/03 09:51:59;;;;;;;25.47;16.50;;;12.70;49.20;;;;;;5069387;28;20502;-44
2021/03/03 09:54:29;;;;;;;20.30;16.97;;;12.90;48.70;;;;;;5064641;28;21485;-45
2021/03/03 09:57:06;;;;;;;21.93;16.63;;;12.90;49.00;;;;;;5068941;28;20434;-44
2021/03/03 09:59:34;;;;;;;23.03;17.37;;;12.90;48.60;;;;;;5065004;28;21264;-44
2021/03/03 10:02:01;;;;;;;20.23;15.37;;;12.50;49.20;;;;;;5067277;28;20438;-45
2021/03/03 10:04:27;;;;;;;23.03;16.17;;;12.60;49.70;;;;;;5063498;28;20789;-44
2021/03/03 10:06:54;;;;;;;25.33;18.43;;;12.90;48.90;;;;;;5067986;28;20514;-44
2021/03/03 10:09:20;;;;;;;20.37;17.00;;;13.00;48.30;;;;;;5065051;28;20441;-44
2021/03/03 10:11:46;;;;;;;19.63;15.23;;;12.90;48.50;;;;;;5062566;28;20572;-44
2021/03/03 10:14:13;;;;;;;22.43;15.67;;;12.80;48.70;;;;;;5065351;28;20529;-44
2021/03/03 10:16:39;;;;;;;20.57;16.57;;;13.10;48.40;;;;;;5064785;28;20543;-44
2021/03/03 10:19:08;;;;;;;25.83;18.43;;;13.40;47.90;;;;;;5065672;28;20434;-44
2021/03/03 10:21:43;;;;;;;24.17;16.00;;;13.70;47.40;;;;;;5064586;28;20192;-44
2021/03/03 10:24:16;;;;;;;23.10;15.93;;;13.60;47.00;;;;;;5064065;28;20441;-44
2021/03/03 10:26:51;;;;;;;24.13;17.10;;;13.70;47.40;;;;;;5063926;28;20560;-44
2021/03/03 10:29:39;;;;;;;23.90;16.27;;;13.50;48.00;;;;;;5060699;28;20454;-44
2021/03/03 10:32:12;;;;;;;23.73;17.63;;;13.60;48.20;;;;;;5062088;28;20430;-44
2021/03/03 10:34:40;;;;;;;25.43;17.03;;;14.00;47.40;;;;;;5061049;28;20439;-44
2021/03/03 10:37:06;;;;;;;24.73;17.63;;;14.30;46.50;;;;;;5059259;28;20485;-43
2021/03/03 10:39:33;;;;;;;22.80;16.73;;;14.30;46.00;;;;;;5065713;28;20426;-45
2021/03/03 10:42:06;;;;;;;20.30;16.17;;;14.30;45.80;;;;;;5056223;28;20438;-44
2021/03/03 10:44:42;;;;;;;24.60;16.73;;;14.40;45.70;;;;;;5062440;28;21108;-43
2021/03/03 10:47:09;;;;;;;20.77;16.40;;;14.60;45.30;;;;;;5062096;28;20503;-43
2021/03/03 10:49:39;;;;;;;25.27;16.60;;;14.10;45.40;;;;;;5058970;28;20513;-43
2021/03/03 10:52:20;;;;;;;22.50;15.60;;;13.90;46.60;;;;;;5062636;28;20511;-44
2021/03/03 10:54:46;;;;;;;21.10;15.13;;;14.10;46.80;;;;;;5059808;28;20466;-46
2021/03/03 10:57:11;;;;;;;20.23;15.10;;;14.40;46.30;;;;;;5060875;28;20438;-44
2021/03/03 10:59:38;;;;;;;17.87;15.37;;;14.50;46.30;;;;;;5061332;28;20204;-43
2021/03/03 11:02:05;;;;;;;24.73;16.03;;;14.70;46.20;;;;;;5039659;28;20271;-43
2021/03/03 11:04:37;;;;;;;20.40;15.10;;;14.80;45.20;;;;;;5061229;28;20438;-43
2021/03/03 11:07:04;;;;;;;23.77;16.70;;;15.00;45.00;;;;;;5055363;28;20483;-44
2021/03/03 11:09:29;;;;;;;20.03;15.00;;;15.10;44.70;;;;;;5058774;28;20430;-44
2021/03/03 11:11:58;;;;;;;18.83;14.47;;;15.30;44.10;;;;;;5056100;28;20983;-43
2021/03/03 11:14:24;;;;;;;21.50;15.20;;;15.70;43.70;;;;;;5057634;28;20193;-47
2021/03/03 11:16:58;;;;;;;21.00;16.03;;;15.80;42.90;;;;;;5060725;28;20466;-44
2021/03/03 11:19:25;;;;;;;22.30;16.00;;;15.80;43.40;;;;;;5062179;28;20446;-44
2021/03/03 11:21:54;;;;;;;20.90;15.83;;;15.90;43.00;;;;;;5046069;28;20811;-44
2021/03/03 11:24:21;;;;;;;16.17;14.47;;;16.20;42.60;;;;;;5063633;28;20438;-43
2021/03/03 11:26:47;;;;;;;16.83;13.53;;;16.40;42.00;;;;;;5066541;28;20574;-45
2021/03/03 11:29:13;;;;;;;18.07;15.63;;;16.50;41.40;;;;;;5057483;28;21142;-45
2021/03/03 11:31:40;;;;;;;18.60;14.57;;;16.30;40.90;;;;;;5059416;28;20196;-45
2021/03/03 11:34:06;;;;;;;22.63;16.30;;;16.40;41.40;;;;;;5056065;28;20426;-44
2021/03/03 11:36:32;;;;;;;18.83;14.97;;;16.10;41.20;;;;;;5056716;28;21042;-44
2021/03/03 11:38:58;;;;;;;19.00;16.17;;;16.00;41.70;;;;;;5065536;28;20459;-44
2021/03/03 11:41:24;;;;;;;19.13;16.20;;;16.10;42.20;;;;;;5063557;28;20436;-44
2021/03/03 11:43:50;;;;;;;22.00;15.40;;;16.20;41.90;;;;;;5065584;28;20192;-43
2021/03/03 11:46:16;;;;;;;20.50;15.00;;;16.30;41.60;;;;;;5061125;28;20224;-44
2021/03/03 11:48:41;;;;;;;16.60;14.00;;;16.20;41.20;;;;;;5065275;28;20434;-44
2021/03/03 11:51:07;;;;;;;18.77;14.67;;;16.10;41.30;;;;;;5059541;28;20192;-44
2021/03/03 11:53:33;;;;;;;28.57;16.27;;;16.30;41.70;;;;;;5055126;28;20630;-44
2021/03/03 11:55:59;;;;;;;21.13;14.90;;;16.60;41.20;;;;;;5067908;28;20196;-43
2021/03/03 11:58:25;;;;;;;22.60;15.57;;;16.80;40.80;;;;;;5059954;28;22105;-44
2021/03/03 12:00:50;;;;;;;19.40;14.17;;;17.00;40.40;;;;;;5042587;28;20195;-43
2021/03/03 12:03:16;;;;;;;20.73;14.63;;;17.30;40.10;;;;;;5071803;28;20196;-44
2021/03/03 12:05:41;;;;;;;16.50;13.30;;;17.50;40.00;;;;;;5069902;28;20223;-43
2021/03/03 12:08:08;;;;;;;24.00;16.40;;;17.70;39.60;;;;;;5063266;28;20283;-43
2021/03/03 12:10:34;;;;;;;19.40;14.10;;;17.70;39.20;;;;;;5064971;28;20244;-43
2021/03/03 12:13:00;;;;;;;16.93;13.70;;;17.90;39.10;;;;;;5071661;28;20434;-44
2021/03/03 12:15:26;;;;;;;20.10;13.83;;;18.00;38.70;;;;;;5059127;28;20441;-44
2021/03/03 12:17:52;;;;;;;19.43;14.57;;;18.10;38.20;;;;;;5064968;28;20422;-43
2021/03/03 12:20:18;;;;;;;18.83;13.57;;;18.30;38.40;;;;;;5066996;28;20561;-44
2021/03/03 12:22:44;;;;;;;22.10;13.47;;;18.40;38.00;;;;;;5061029;28;20220;-43
2021/03/03 12:25:10;;;;;;;22.60;14.97;;;18.40;37.00;;;;;;5065765;28;20492;-44
2021/03/03 12:27:36;;;;;;;23.57;13.03;;;18.40;37.00;;;;;;5067005;28;20613;-45
2021/03/03 12:30:01;;;;;;;18.20;14.33;;;18.40;37.40;;;;;;5057473;28;20548;-44
2021/03/03 12:32:27;;;;;;;18.50;13.80;;;18.50;37.10;;;;;;5061050;28;20191;-44
2021/03/03 12:34:52;;;;;;;19.07;13.83;;;18.60;36.30;;;;;;5061717;28;20641;-44
2021/03/03 12:37:18;;;;;;;17.73;13.30;;;18.60;36.10;;;;;;5068374;28;20247;-43